createdAt,value
2017-10-01T08:32:30.542Z,60
2017-10-01T08:33:31.219Z,145
2017-10-01T08:34:31.895Z,125
2017-10-01T08:35:32.572Z,105
2017-10-01T08:36:33.259Z,110
2017-10-01T08:37:33.947Z,115
2017-10-01T08:38:34.624Z,115
2017-10-01T08:39:35.298Z,125
2017-10-01T08:40:35.978Z,125
2017-10-01T08:41:36.658Z,125
2017-10-01T08:42:37.340Z,125
2017-10-01T08:43:38.017Z,120
2017-10-01T08:44:38.703Z,120
2017-10-01T08:45:39.379Z,115
2017-10-01T08:46:40.058Z,85
2017-10-01T08:47:40.744Z,105
2017-10-01T08:48:41.421Z,105
2017-10-01T08:49:42.097Z,105
2017-10-01T08:50:42.777Z,110
2017-10-01T08:51:43.457Z,115
2017-10-01T08:52:44.135Z,120
2017-10-01T08:53:44.821Z,120
2017-10-01T08:54:45.498Z,120
2017-10-01T08:55:46.180Z,120
2017-10-01T08:56:46.873Z,120
2017-10-01T08:57:47.554Z,120
2017-10-01T08:58:48.241Z,115
2017-10-01T08:59:48.923Z,125
2017-10-01T09:00:49.604Z,135
2017-10-01T09:01:50.290Z,150
2017-10-01T09:02:50.976Z,160
2017-10-01T09:03:51.653Z,160
2017-10-01T09:04:52.331Z,170
2017-10-01T09:05:53.010Z,175
2017-10-01T09:06:53.687Z,180
2017-10-01T09:07:54.374Z,185
2017-10-01T09:08:55.052Z,185
2017-10-01T09:09:55.731Z,190
2017-10-01T09:10:56.429Z,185
2017-10-01T09:11:57.109Z,195
2017-10-01T09:12:57.801Z,195
2017-10-01T09:13:58.478Z,200
2017-10-01T09:14:59.163Z,195
2017-10-01T09:15:59.845Z,200
2017-10-01T09:17:00.600Z,195
2017-10-01T09:18:01.341Z,190
2017-10-01T09:19:02.033Z,195
2017-10-01T09:20:02.712Z,195
2017-10-01T09:21:03.397Z,200
2017-10-01T09:22:04.072Z,205
2017-10-01T09:23:04.757Z,210
2017-10-01T09:24:05.435Z,210
2017-10-01T09:25:06.115Z,210
2017-10-01T09:26:06.805Z,210
2017-10-01T09:27:07.483Z,215
2017-10-01T09:28:08.162Z,225
2017-10-01T09:29:08.840Z,235
2017-10-01T09:30:09.548Z,230
2017-10-01T09:31:10.227Z,230
2017-10-01T09:32:10.908Z,235
2017-10-01T09:33:11.586Z,255
2017-10-01T09:34:12.266Z,245
2017-10-01T09:35:12.958Z,240
2017-10-01T09:36:13.636Z,250
2017-10-01T09:37:14.315Z,265
2017-10-01T09:38:15.005Z,235
2017-10-01T09:39:15.685Z,220
2017-10-01T09:40:16.381Z,195
2017-10-01T09:41:17.066Z,185
2017-10-01T09:42:17.744Z,185
2017-10-01T09:43:18.477Z,185
2017-10-01T09:44:19.157Z,185
2017-10-01T09:45:19.837Z,195
2017-10-01T09:46:20.523Z,215
2017-10-01T09:47:21.203Z,215
2017-10-01T09:48:21.889Z,210
2017-10-01T09:49:22.566Z,220
2017-10-01T09:50:23.246Z,215
2017-10-01T09:51:23.930Z,220
2017-10-01T09:52:24.609Z,220
2017-10-01T09:53:25.307Z,215
2017-10-01T09:54:26.002Z,205
2017-10-01T09:55:26.689Z,185
2017-10-01T09:56:27.370Z,170
2017-10-01T09:57:28.067Z,165
2017-10-01T09:58:28.751Z,150
2017-10-01T09:59:29.448Z,145
2017-10-01T10:00:30.058Z,125
2017-10-01T10:01:30.836Z,120
2017-10-01T10:02:31.522Z,110
2017-10-01T10:03:32.200Z,105
2017-10-01T10:04:32.900Z,110
2017-10-01T10:05:33.582Z,110
2017-10-01T10:06:34.261Z,120
2017-10-01T10:07:34.937Z,130
2017-10-01T10:08:35.877Z,130
2017-10-01T10:09:36.559Z,130
2017-10-01T10:10:37.277Z,125
2017-10-01T10:11:37.964Z,125
2017-10-01T10:12:38.657Z,125
2017-10-01T10:13:39.361Z,125
2017-10-01T10:14:40.051Z,125
2017-10-01T10:15:40.732Z,130
2017-10-01T10:16:41.418Z,130
2017-10-01T10:17:42.113Z,125
2017-10-01T10:18:43.109Z,125
2017-10-01T10:19:43.791Z,125
2017-10-01T10:20:44.495Z,135
2017-10-01T10:21:45.191Z,145
2017-10-01T10:22:45.867Z,150
2017-10-01T10:23:46.549Z,155
2017-10-01T10:24:47.255Z,160
2017-10-01T10:25:47.943Z,165
2017-10-01T10:26:48.650Z,170
2017-10-01T10:27:49.344Z,180
2017-10-01T10:28:50.277Z,180
2017-10-01T10:29:50.971Z,180
2017-10-01T10:30:51.651Z,180
2017-10-01T10:31:52.334Z,180
2017-10-01T10:32:53.025Z,180
2017-10-01T10:33:53.706Z,180
2017-10-01T10:34:54.384Z,185
2017-10-01T10:35:55.063Z,185
2017-10-01T10:36:55.746Z,190
2017-10-01T10:37:56.432Z,190
2017-10-01T10:38:57.426Z,185
2017-10-01T10:39:58.108Z,185
2017-10-01T10:40:58.791Z,185
2017-10-01T10:41:59.472Z,190
2017-10-01T10:43:00.156Z,185
2017-10-01T10:44:00.835Z,180
2017-10-01T10:45:01.514Z,185
2017-10-01T10:46:02.203Z,185
2017-10-01T10:47:02.893Z,175
2017-10-01T10:48:03.573Z,170
2017-10-01T10:49:04.510Z,165
2017-10-01T10:50:05.193Z,155
2017-10-01T10:51:05.879Z,160
2017-10-01T10:52:06.598Z,170
2017-10-01T10:53:07.273Z,175
2017-10-01T10:54:07.955Z,165
2017-10-01T10:55:08.638Z,180
2017-10-01T10:56:09.319Z,205
2017-10-01T10:57:10.001Z,220
2017-10-01T10:58:10.685Z,225
2017-10-01T10:59:11.361Z,235
2017-10-01T11:00:12.042Z,240
2017-10-01T11:01:12.721Z,245
2017-10-01T11:02:13.401Z,225
2017-10-01T11:03:14.085Z,210
2017-10-01T11:04:14.766Z,225
2017-10-01T11:05:15.446Z,245
2017-10-01T11:06:16.126Z,265
2017-10-01T11:07:16.820Z,275
2017-10-01T11:08:17.504Z,265
2017-10-01T11:09:18.495Z,240
2017-10-01T11:10:19.179Z,220
2017-10-01T11:11:19.860Z,195
2017-10-01T11:12:20.544Z,175
2017-10-01T11:13:21.227Z,170
2017-10-01T11:14:21.908Z,170
2017-10-01T11:15:22.589Z,155
2017-10-01T11:16:23.297Z,155
2017-10-01T11:17:23.948Z,150
2017-10-01T11:18:24.628Z,145
2017-10-01T11:19:25.318Z,145
2017-10-01T11:20:26.010Z,150
2017-10-01T11:21:26.696Z,150
2017-10-01T11:22:27.378Z,150
2017-10-01T11:23:28.058Z,145
2017-10-01T11:24:28.748Z,135
2017-10-01T11:25:29.433Z,135
2017-10-01T11:26:30.115Z,130
2017-10-01T11:27:30.803Z,125
2017-10-01T11:28:31.490Z,125
2017-10-01T11:29:32.170Z,130
2017-10-01T11:30:32.847Z,130
2017-10-01T11:31:33.535Z,125
2017-10-01T11:32:34.218Z,125
2017-10-01T11:33:34.898Z,115
2017-10-01T11:34:35.831Z,115
2017-10-01T11:35:36.564Z,115
2017-10-01T11:36:37.244Z,115
2017-10-01T11:37:37.937Z,105
2017-10-01T11:38:38.614Z,105
2017-10-01T11:39:39.302Z,105
2017-10-01T11:40:39.992Z,110
2017-10-01T11:41:40.713Z,115
2017-10-01T11:42:41.408Z,115
2017-10-01T11:43:42.100Z,110
2017-10-01T11:44:42.780Z,115
2017-10-01T11:45:43.461Z,120
2017-10-01T11:46:44.142Z,120
2017-10-01T11:47:44.823Z,115
2017-10-01T11:48:45.508Z,115
2017-10-01T11:49:46.186Z,115
2017-10-01T11:50:46.866Z,110
2017-10-01T11:51:47.554Z,100
2017-10-01T11:52:48.232Z,95
2017-10-01T11:53:48.914Z,90
2017-10-01T11:54:49.846Z,85
2017-10-01T11:55:50.528Z,80
2017-10-01T11:56:51.215Z,85
2017-10-01T11:57:51.898Z,90
2017-10-01T11:58:52.577Z,95
2017-10-01T11:59:53.267Z,105
2017-10-01T12:00:53.950Z,115
2017-10-01T12:01:54.634Z,135
2017-10-01T12:02:55.324Z,155
2017-10-01T12:03:56.007Z,165
2017-10-01T12:04:56.699Z,175
2017-10-01T12:05:57.380Z,205
2017-10-01T12:06:58.072Z,350
2017-10-01T12:07:58.757Z,165
2017-10-01T12:08:59.438Z,160
2017-10-01T12:10:00.113Z,140
2017-10-01T12:11:00.801Z,130
2017-10-01T12:12:01.500Z,120
2017-10-01T12:13:02.183Z,125
2017-10-01T12:14:02.866Z,125
2017-10-01T12:15:03.548Z,145
2017-10-01T12:16:04.228Z,160
2017-10-01T12:17:04.910Z,165
2017-10-01T12:18:05.607Z,145
2017-10-01T12:19:06.293Z,125
2017-10-01T12:20:07.274Z,115
2017-10-01T12:21:07.968Z,115
2017-10-01T12:22:08.656Z,120
2017-10-01T12:23:09.344Z,120
2017-10-01T12:24:10.027Z,120
2017-10-01T12:25:11.006Z,125
2017-10-01T12:26:11.697Z,120
2017-10-01T12:27:12.380Z,110
2017-10-01T12:28:13.059Z,105
2017-10-01T12:29:13.749Z,105
2017-10-01T12:30:14.738Z,110
2017-10-01T12:31:15.442Z,100
2017-10-01T12:32:16.131Z,95
2017-10-01T12:33:16.819Z,100
2017-10-01T12:34:17.495Z,105
2017-10-01T12:35:18.479Z,105
2017-10-01T12:36:19.162Z,105
2017-10-01T12:37:19.846Z,105
2017-10-01T12:38:20.540Z,105
2017-10-01T12:39:21.224Z,105
2017-10-01T12:40:22.209Z,100
2017-10-01T12:41:22.894Z,95
2017-10-01T12:42:23.576Z,90
2017-10-01T12:43:24.256Z,90
2017-10-01T12:44:24.969Z,90
2017-10-01T12:45:26.014Z,90
2017-10-01T12:46:26.703Z,90
2017-10-01T12:47:27.386Z,90
2017-10-01T12:48:28.065Z,90
2017-10-01T12:49:28.746Z,90
2017-10-01T12:50:29.731Z,95
2017-10-01T12:51:30.425Z,100
2017-10-01T12:52:31.111Z,105
2017-10-01T12:53:31.795Z,110
2017-10-01T12:54:32.474Z,115
2017-10-01T12:55:33.455Z,120
2017-10-01T12:56:34.142Z,130
2017-10-01T12:57:34.825Z,130
2017-10-01T12:58:35.513Z,135
2017-10-01T12:59:36.209Z,145
2017-10-01T13:00:37.188Z,150
2017-10-01T13:01:37.873Z,160
2017-10-01T13:02:38.555Z,165
2017-10-01T13:03:39.235Z,175
2017-10-01T13:04:39.952Z,165
2017-10-01T13:05:40.984Z,160
2017-10-01T13:06:41.666Z,155
2017-10-01T13:07:42.346Z,145
2017-10-01T13:08:43.042Z,140
2017-10-01T13:09:43.720Z,145
2017-10-01T13:10:44.709Z,150
2017-10-01T13:11:45.393Z,155
2017-10-01T13:12:46.081Z,160
2017-10-01T13:13:46.760Z,165
2017-10-01T13:14:47.449Z,160
2017-10-01T13:15:48.433Z,140
2017-10-01T13:16:49.107Z,130
2017-10-01T13:17:49.793Z,125
2017-10-01T13:18:50.477Z,125
2017-10-01T13:19:51.158Z,130
2017-10-01T13:20:52.206Z,140
2017-10-01T13:21:52.890Z,150
2017-10-01T13:22:53.574Z,160
2017-10-01T13:24:54.940Z,165
2017-10-01T13:25:55.936Z,165
2017-10-01T13:26:56.618Z,185
2017-10-01T13:27:57.300Z,185
2017-10-01T13:28:57.981Z,185
2017-10-01T13:29:58.666Z,190
2017-10-01T13:30:59.646Z,180
2017-10-01T13:32:00.330Z,165
2017-10-01T13:33:01.027Z,150
2017-10-01T13:34:01.723Z,150
2017-10-01T13:35:02.402Z,145
2017-10-01T13:36:03.446Z,150
2017-10-01T13:37:04.130Z,160
2017-10-01T13:38:04.810Z,150
2017-10-01T13:39:05.492Z,145
2017-10-01T13:40:06.175Z,150
2017-10-01T13:41:07.212Z,150
2017-10-01T13:42:07.898Z,145
2017-10-01T13:43:08.584Z,125
2017-10-01T13:44:09.267Z,115
2017-10-01T13:45:09.954Z,115
2017-10-01T13:46:10.937Z,115
2017-10-01T13:47:11.617Z,125
2017-10-01T13:48:12.306Z,125
2017-10-01T13:49:12.988Z,135
2017-10-01T13:50:13.673Z,150
2017-10-01T13:51:14.665Z,200
2017-10-01T13:52:15.349Z,225
2017-10-01T13:53:16.030Z,220
2017-10-01T13:54:16.713Z,235
2017-10-01T13:55:17.402Z,270
2017-10-01T13:56:18.435Z,315
2017-10-01T13:57:19.117Z,345
2017-10-01T13:58:19.811Z,355
2017-10-01T13:59:20.499Z,325
2017-10-01T14:00:21.182Z,315
2017-10-01T14:01:22.165Z,290
2017-10-01T14:02:22.851Z,280
2017-10-01T14:03:23.539Z,1125
2017-10-01T14:04:24.223Z,530
2017-10-01T14:05:24.907Z,345
2017-10-01T14:06:25.895Z,530
2017-10-01T14:07:26.576Z,550
2017-10-01T14:08:27.260Z,275
2017-10-01T14:09:27.942Z,290
2017-10-01T14:10:28.624Z,560
2017-10-01T14:11:29.664Z,475
2017-10-01T14:12:30.347Z,520
2017-10-01T14:13:31.039Z,565
2017-10-01T14:14:31.722Z,795
2017-10-01T14:15:32.413Z,805
2017-10-01T14:16:33.397Z,655
2017-10-01T14:17:34.089Z,700
2017-10-01T14:18:34.771Z,375
2017-10-01T14:19:35.462Z,590
2017-10-01T14:20:36.139Z,320
2017-10-01T14:21:37.182Z,580
2017-10-01T14:22:37.866Z,325
2017-10-01T14:23:38.547Z,235
2017-10-01T14:24:39.235Z,205
2017-10-01T14:25:39.925Z,270
2017-10-01T14:26:40.967Z,240
2017-10-01T14:27:41.652Z,240
2017-10-01T14:28:42.334Z,240
2017-10-01T14:29:43.024Z,235
2017-10-01T14:30:43.738Z,230
2017-10-01T14:31:44.772Z,220
2017-10-01T14:32:45.459Z,210
2017-10-01T14:33:46.146Z,205
2017-10-01T14:34:46.829Z,200
2017-10-01T14:35:47.519Z,190
2017-10-01T14:36:48.506Z,165
2017-10-01T14:37:49.194Z,155
2017-10-01T14:38:49.886Z,150
2017-10-01T14:39:50.588Z,145
2017-10-01T14:40:51.277Z,140
2017-10-01T14:41:52.267Z,135
2017-10-01T14:42:52.976Z,125
2017-10-01T14:43:53.669Z,120
2017-10-01T14:44:54.355Z,120
2017-10-01T14:45:55.046Z,130
2017-10-01T14:46:56.082Z,135
2017-10-01T14:47:56.772Z,140
2017-10-01T14:48:57.464Z,140
2017-10-01T14:49:58.163Z,135
2017-10-01T14:50:58.847Z,130
2017-10-01T14:51:59.830Z,130
2017-10-01T14:53:00.521Z,130
2017-10-01T14:54:01.198Z,125
2017-10-01T14:55:01.890Z,125
2017-10-01T14:56:02.570Z,120
2017-10-01T14:57:03.618Z,115
2017-10-01T14:58:04.345Z,105
2017-10-01T14:59:05.062Z,100
2017-10-01T15:00:05.646Z,95
2017-10-01T15:01:06.433Z,135
2017-10-01T15:02:07.416Z,280
2017-10-01T15:03:08.096Z,225
2017-10-01T15:04:08.794Z,115
2017-10-01T15:05:09.486Z,165
2017-10-01T15:06:10.169Z,100
2017-10-01T15:07:11.204Z,100
2017-10-01T15:08:11.890Z,100
2017-10-01T15:09:12.569Z,135
2017-10-01T15:10:13.254Z,140
2017-10-01T15:11:13.935Z,145
2017-10-01T15:12:14.969Z,150
2017-10-01T15:13:15.653Z,160
2017-10-01T15:14:16.341Z,150
2017-10-01T15:15:17.023Z,145
2017-10-01T15:16:17.705Z,130
2017-10-01T15:17:18.739Z,120
2017-10-01T15:18:19.649Z,120
2017-10-01T15:19:20.330Z,120
2017-10-01T15:20:21.026Z,120
2017-10-01T15:21:21.707Z,120
2017-10-01T15:22:22.742Z,120
2017-10-01T15:23:23.427Z,120
2017-10-01T15:24:24.117Z,120
2017-10-01T15:25:24.804Z,120
2017-10-01T15:26:25.489Z,120
2017-10-01T15:27:26.524Z,120
2017-10-01T15:28:27.207Z,115
2017-10-01T15:29:27.895Z,110
2017-10-01T15:30:28.572Z,110
2017-10-01T15:31:29.254Z,110
2017-10-01T15:32:30.302Z,110
2017-10-01T15:33:31.010Z,105
2017-10-01T15:34:31.699Z,100
2017-10-01T15:35:32.385Z,100
2017-10-01T15:36:33.074Z,105
2017-10-01T15:37:34.108Z,105
2017-10-01T15:38:34.811Z,105
2017-10-01T15:39:35.445Z,105
2017-10-01T15:40:36.175Z,100
2017-10-01T15:41:36.867Z,100
2017-10-01T15:42:37.905Z,100
2017-10-01T15:43:38.591Z,110
2017-10-01T15:44:39.267Z,110
2017-10-01T15:45:39.965Z,110
2017-10-01T15:46:40.653Z,105
2017-10-01T15:47:41.690Z,105
2017-10-01T15:48:42.382Z,100
2017-10-01T15:49:43.067Z,95
2017-10-01T15:50:43.755Z,90
2017-10-01T15:51:44.436Z,85
2017-10-01T15:52:45.521Z,85
2017-10-01T15:53:46.202Z,80
2017-10-01T15:54:46.884Z,75
2017-10-01T15:55:47.565Z,75
2017-10-01T15:56:48.247Z,75
2017-10-01T15:57:49.290Z,70
2017-10-01T15:58:49.970Z,65
2017-10-01T15:59:50.656Z,65
2017-10-01T16:00:51.340Z,65
2017-10-01T16:01:52.026Z,65
2017-10-01T16:02:53.007Z,65
2017-10-01T16:03:53.702Z,65
2017-10-01T16:04:54.392Z,70
2017-10-01T16:05:55.100Z,70
2017-10-01T16:06:55.785Z,65
2017-10-01T16:07:56.828Z,65
2017-10-01T16:08:57.510Z,60
2017-10-01T16:09:58.188Z,60
2017-10-01T16:10:58.875Z,60
2017-10-01T16:11:59.562Z,60
2017-10-01T16:13:00.546Z,60
2017-10-01T16:14:01.234Z,60
2017-10-01T16:15:01.927Z,60
2017-10-01T16:16:02.605Z,60
2017-10-01T16:17:03.297Z,60
2017-10-01T16:18:04.369Z,55
2017-10-01T16:19:05.049Z,55
2017-10-01T16:20:05.741Z,55
2017-10-01T16:21:06.422Z,55
2017-10-01T16:22:07.106Z,55
2017-10-01T16:23:08.136Z,50
2017-10-01T16:24:08.818Z,45
2017-10-01T16:25:09.499Z,45
2017-10-01T16:26:10.184Z,45
2017-10-01T16:27:10.882Z,40
2017-10-01T16:28:11.961Z,40
2017-10-01T16:29:12.642Z,40
2017-10-01T16:30:13.321Z,40
2017-10-01T16:31:14.001Z,35
2017-10-01T16:32:14.693Z,35
2017-10-01T16:33:15.674Z,35
2017-10-01T16:34:16.356Z,35
2017-10-01T16:35:17.040Z,30
2017-10-01T16:36:17.719Z,30
2017-10-01T16:37:18.401Z,25
2017-10-01T16:38:19.434Z,25
2017-10-01T16:39:20.119Z,20
2017-10-01T16:40:20.804Z,20
2017-10-01T16:41:21.484Z,20
2017-10-01T16:42:22.172Z,15
2017-10-01T16:43:23.154Z,15
2017-10-01T16:44:23.844Z,15
2017-10-01T16:45:24.526Z,15
2017-10-01T16:46:25.202Z,10
2017-10-01T16:47:25.876Z,10
2017-10-01T16:48:26.865Z,10
2017-10-01T16:49:27.544Z,10
2017-10-01T16:50:28.235Z,10
2017-10-01T16:51:28.912Z,10
2017-10-01T16:52:29.590Z,5
2017-10-01T16:53:30.570Z,5
2017-10-01T16:54:31.254Z,5
2017-10-01T16:55:31.940Z,5
2017-10-01T16:56:32.618Z,5
2017-10-01T16:57:33.298Z,5
2017-10-01T16:58:34.342Z,5
2017-10-01T16:59:35.022Z,0
2017-10-01T17:00:35.696Z,0
2017-10-01T17:01:36.386Z,0
2017-10-01T17:02:37.056Z,0
2017-10-01T17:03:38.043Z,0
2017-10-01T17:04:38.726Z,0
2017-10-01T17:05:39.403Z,0
2017-10-01T17:06:40.079Z,0
2017-10-01T17:07:40.770Z,0
2017-10-01T17:08:41.801Z,0
2017-10-01T17:09:42.480Z,0
2017-10-01T17:10:43.163Z,0
2017-10-01T17:11:43.841Z,0
2017-10-01T17:12:44.524Z,0
2017-10-01T17:13:45.552Z,0
2017-10-01T17:14:46.244Z,0
2017-10-01T17:15:46.921Z,0
2017-10-01T17:16:47.589Z,0
2017-10-01T17:17:48.274Z,0
2017-10-01T17:18:49.300Z,0
2017-10-01T17:19:49.984Z,0
2017-10-01T17:20:50.660Z,0
2017-10-01T17:21:51.333Z,0
2017-10-01T17:22:52.007Z,0
2017-10-01T17:23:53.033Z,0
2017-10-01T17:24:53.712Z,0
2017-10-01T17:25:54.393Z,0
2017-10-01T17:26:55.080Z,0
2017-10-01T17:27:55.754Z,0
2017-10-01T17:28:56.462Z,0
2017-10-01T17:29:57.119Z,0
2017-10-01T17:30:57.795Z,0
2017-10-01T17:31:58.496Z,0
2017-10-01T17:32:59.174Z,0
2017-10-01T17:33:59.848Z,0
2017-10-01T17:35:00.536Z,0
2017-10-01T17:36:01.210Z,0
2017-10-01T17:37:01.892Z,0
2017-10-01T17:38:02.576Z,0
2017-10-01T17:39:03.553Z,0
2017-10-01T17:40:04.247Z,0
2017-10-01T17:41:04.926Z,0
2017-10-01T17:42:05.620Z,0
2017-10-01T17:43:06.304Z,0
2017-10-01T17:44:07.294Z,0
2017-10-01T17:45:07.969Z,0
2017-10-01T17:46:08.647Z,0
2017-10-01T17:47:09.334Z,0
2017-10-01T17:48:10.020Z,0
2017-10-01T17:49:10.694Z,0
2017-10-01T17:50:11.370Z,0
2017-10-01T17:51:12.076Z,0
2017-10-01T17:52:12.768Z,0
2017-10-01T17:53:13.454Z,0
2017-10-01T17:54:14.141Z,0
2017-10-01T17:55:14.836Z,0
2017-10-01T17:56:15.527Z,0
2017-10-01T17:57:16.217Z,0
2017-10-01T17:58:16.906Z,0
2017-10-01T17:59:17.598Z,0
2017-10-01T18:00:18.284Z,0
2017-10-01T18:01:18.955Z,0
2017-10-01T18:02:19.637Z,0
2017-10-01T18:03:20.324Z,0
2017-10-01T18:04:21.354Z,0
2017-10-01T18:05:22.034Z,0
2017-10-01T18:06:22.708Z,0
2017-10-01T18:07:23.399Z,0
2017-10-01T18:08:24.089Z,0
2017-10-01T18:09:24.769Z,0
2017-10-01T18:10:25.484Z,0
2017-10-01T18:11:26.170Z,0
2017-10-01T18:12:26.860Z,0
2017-10-01T18:13:27.544Z,0
2017-10-01T18:14:28.575Z,0
2017-10-01T18:15:29.251Z,0
2017-10-01T18:16:29.942Z,0
2017-10-01T18:17:30.621Z,0
2017-10-01T18:18:31.307Z,0
2017-10-01T18:19:31.990Z,0
2017-10-01T18:20:32.669Z,0
2017-10-01T18:21:33.359Z,0
2017-10-01T18:22:34.051Z,0
2017-10-01T18:23:34.721Z,0
2017-10-01T18:24:35.702Z,0
2017-10-01T18:25:36.379Z,0
2017-10-01T18:26:37.071Z,0
2017-10-01T18:27:37.749Z,0
2017-10-01T18:28:38.424Z,0
2017-10-01T18:29:39.401Z,0
2017-10-01T18:30:40.080Z,0
2017-10-01T18:31:40.755Z,0
2017-10-01T18:32:41.427Z,0
2017-10-01T18:33:42.105Z,0
2017-10-01T18:34:43.079Z,0
2017-10-01T18:35:43.762Z,0
2017-10-01T18:36:44.434Z,0
2017-10-01T18:37:45.114Z,0
2017-10-01T18:38:45.787Z,0
2017-10-01T18:39:46.763Z,0
2017-10-01T18:40:47.438Z,0
2017-10-01T18:41:48.112Z,0
2017-10-01T18:42:48.787Z,0
2017-10-01T18:43:49.463Z,0
2017-10-01T18:44:50.442Z,0
2017-10-01T18:45:51.139Z,0
2017-10-01T18:46:51.821Z,0
2017-10-01T18:47:52.503Z,0
2017-10-01T18:48:53.185Z,0
2017-10-01T18:49:54.200Z,0
2017-10-01T18:50:54.852Z,0
2017-10-01T18:51:55.529Z,0
2017-10-01T18:52:56.213Z,0
2017-10-01T18:53:56.890Z,0
2017-10-01T18:54:57.871Z,0
2017-10-01T18:55:58.556Z,0
2017-10-01T18:56:59.230Z,0
2017-10-01T18:57:59.908Z,0
2017-10-01T18:59:00.609Z,0
2017-10-01T19:00:01.565Z,0
2017-10-01T19:01:02.239Z,0
2017-10-01T19:02:02.924Z,0
2017-10-01T19:03:03.594Z,0
2017-10-01T19:04:04.274Z,0
2017-10-01T19:05:05.249Z,0
2017-10-01T19:06:05.925Z,0
2017-10-01T19:07:06.611Z,0
2017-10-01T19:08:07.281Z,0
2017-10-01T19:09:07.961Z,0
2017-10-01T19:10:08.944Z,0
2017-10-01T19:11:09.621Z,0
2017-10-01T19:12:10.300Z,0
2017-10-01T19:13:10.979Z,0
2017-10-01T19:14:11.655Z,0
2017-10-01T19:15:12.633Z,0
2017-10-01T19:16:13.310Z,0
2017-10-01T19:17:13.992Z,0
2017-10-01T19:18:14.660Z,0
2017-10-01T19:19:15.332Z,0
2017-10-01T19:20:16.313Z,0
2017-10-01T19:21:16.988Z,0
2017-10-01T19:22:17.668Z,0
2017-10-01T19:23:18.346Z,0
2017-10-01T19:24:19.029Z,0
2017-10-01T19:25:20.002Z,0
2017-10-01T19:26:20.674Z,0
2017-10-01T19:27:21.358Z,0
2017-10-01T19:28:22.039Z,0
2017-10-01T19:29:22.725Z,0
2017-10-01T19:30:23.714Z,0
2017-10-01T19:31:24.387Z,0
2017-10-01T19:32:25.070Z,0
2017-10-01T19:33:25.758Z,0
2017-10-01T19:34:26.442Z,0
2017-10-01T19:35:27.469Z,0
2017-10-01T19:36:28.147Z,0
2017-10-01T19:37:28.823Z,0
2017-10-01T19:38:29.497Z,0
2017-10-01T19:39:30.186Z,0
2017-10-01T19:40:31.163Z,0
2017-10-01T19:41:31.849Z,0
2017-10-01T19:42:32.532Z,0
2017-10-01T19:43:33.207Z,0
2017-10-01T19:44:33.880Z,0
2017-10-01T19:45:34.855Z,0
2017-10-01T19:46:35.530Z,0
2017-10-01T19:47:36.205Z,0
2017-10-01T19:48:36.879Z,0
2017-10-01T19:49:37.556Z,0
2017-10-01T19:50:38.530Z,0
2017-10-01T19:51:39.208Z,0
2017-10-01T19:52:39.883Z,0
2017-10-01T19:53:40.556Z,0
2017-10-01T19:54:41.227Z,0
2017-10-01T19:55:42.208Z,0
2017-10-01T19:56:42.883Z,0
2017-10-01T19:57:43.562Z,0
2017-10-01T19:58:44.236Z,0
2017-10-01T19:59:44.915Z,0
2017-10-01T20:00:45.889Z,0
2017-10-01T20:01:46.563Z,0
2017-10-01T20:02:47.242Z,0
2017-10-01T20:03:47.922Z,0
2017-10-01T20:04:48.614Z,0
2017-10-01T20:05:49.576Z,0
2017-10-01T20:06:50.249Z,0
2017-10-01T20:07:50.929Z,0
2017-10-01T20:08:51.604Z,0
2017-10-01T20:09:52.286Z,0
2017-10-01T20:10:53.261Z,0
2017-10-01T20:11:53.941Z,0
2017-10-01T20:12:54.626Z,0
2017-10-01T20:13:55.300Z,0
2017-10-01T20:14:55.984Z,0
2017-10-01T20:15:56.972Z,0
2017-10-01T20:16:57.655Z,0
2017-10-01T20:17:58.329Z,0
2017-10-01T20:18:59.002Z,0
2017-10-01T20:19:59.702Z,0
2017-10-01T20:21:00.663Z,0
2017-10-01T20:22:01.344Z,0
2017-10-01T20:23:02.016Z,0
2017-10-01T20:24:02.683Z,0
2017-10-01T20:25:03.368Z,0
2017-10-01T20:26:04.351Z,0
2017-10-01T20:27:05.027Z,0
2017-10-01T20:28:05.706Z,0
2017-10-01T20:29:06.384Z,0
2017-10-01T20:30:07.071Z,0
2017-10-01T20:31:08.045Z,0
2017-10-01T20:32:08.719Z,0
2017-10-01T20:33:09.397Z,0
2017-10-01T20:34:10.078Z,0
2017-10-01T20:35:10.750Z,0
2017-10-01T20:36:11.724Z,0
2017-10-01T20:37:12.396Z,0
2017-10-01T20:38:13.072Z,0
2017-10-01T20:39:13.751Z,0
2017-10-01T20:40:14.426Z,0
2017-10-01T20:41:15.446Z,0
2017-10-01T20:42:16.118Z,0
2017-10-01T20:43:16.795Z,0
2017-10-01T20:44:17.467Z,0
2017-10-01T20:45:18.139Z,0
2017-10-01T20:46:19.164Z,0
2017-10-01T20:47:19.837Z,0
2017-10-01T20:48:20.528Z,0
2017-10-01T20:49:21.194Z,0
2017-10-01T20:50:21.898Z,0
2017-10-01T20:51:22.873Z,0
2017-10-01T20:52:23.543Z,0
2017-10-01T20:53:24.220Z,0
2017-10-01T20:54:24.894Z,0
2017-10-01T20:55:25.581Z,0
2017-10-01T20:56:26.554Z,0
2017-10-01T20:57:27.233Z,0
2017-10-01T20:58:27.908Z,0
2017-10-01T20:59:28.585Z,0
2017-10-01T21:00:29.258Z,0
2017-10-01T21:01:30.279Z,0
2017-10-01T21:02:30.950Z,0
2017-10-01T21:03:31.626Z,0
2017-10-01T21:04:32.294Z,0
2017-10-01T21:05:32.973Z,0
2017-10-01T21:06:33.956Z,0
2017-10-01T21:07:34.633Z,0
2017-10-01T21:08:35.336Z,0
2017-10-01T21:09:36.010Z,0
2017-10-01T21:10:36.688Z,0
2017-10-01T21:11:37.665Z,0
2017-10-01T21:12:38.330Z,0
2017-10-01T21:13:39.001Z,0
2017-10-01T21:14:39.672Z,0
2017-10-01T21:15:40.355Z,0
2017-10-01T21:16:41.342Z,0
2017-10-01T21:17:42.019Z,0
2017-10-01T21:18:42.700Z,0
2017-10-01T21:19:43.381Z,0
2017-10-01T21:20:44.053Z,0
2017-10-01T21:21:45.027Z,0
2017-10-01T21:22:45.705Z,0
2017-10-01T21:23:46.384Z,0
2017-10-01T21:24:47.056Z,0
2017-10-01T21:25:47.726Z,0
2017-10-01T21:26:48.696Z,0
2017-10-01T21:27:49.366Z,0
2017-10-01T21:28:50.040Z,0
2017-10-01T21:29:50.720Z,0
2017-10-01T21:30:51.384Z,0
2017-10-01T21:31:52.409Z,0
2017-10-01T21:32:53.084Z,0
2017-10-01T21:33:53.764Z,0
2017-10-01T21:34:54.428Z,0
2017-10-01T21:35:55.097Z,0
2017-10-01T21:36:56.117Z,0
2017-10-01T21:37:56.788Z,0
2017-10-01T21:38:57.458Z,0
2017-10-01T21:39:58.131Z,0
2017-10-01T21:40:58.808Z,0
2017-10-01T21:41:59.779Z,0
2017-10-01T21:43:00.447Z,0
2017-10-01T21:44:01.127Z,0
2017-10-01T21:45:01.800Z,0
2017-10-01T21:46:02.472Z,0
2017-10-01T21:47:03.503Z,0
2017-10-01T21:48:04.177Z,0
2017-10-01T21:49:04.859Z,0
2017-10-01T21:50:05.542Z,0
2017-10-01T21:51:06.213Z,0
2017-10-01T21:52:07.236Z,0
2017-10-01T21:53:07.911Z,0
2017-10-01T21:54:08.590Z,0
2017-10-01T21:55:09.278Z,0
2017-10-01T21:56:09.950Z,0
2017-10-01T21:57:10.973Z,0
2017-10-01T21:58:11.658Z,0
2017-10-01T21:59:12.326Z,0
2017-10-01T22:00:12.998Z,0
2017-10-01T22:01:13.669Z,0
2017-10-01T22:02:14.647Z,0
2017-10-01T22:03:15.315Z,0
2017-10-01T22:04:15.992Z,0
2017-10-01T22:05:16.664Z,0
2017-10-01T22:06:17.334Z,0
2017-10-01T22:07:18.304Z,0
2017-10-01T22:08:18.979Z,0
2017-10-01T22:09:19.648Z,0
2017-10-01T22:10:20.330Z,0
2017-10-01T22:11:20.998Z,0
2017-10-01T22:12:21.983Z,0
2017-10-01T22:13:22.652Z,0
2017-10-01T22:14:23.324Z,0
2017-10-01T22:15:24.004Z,0
2017-10-01T22:16:24.679Z,0
2017-10-01T22:17:25.700Z,0
2017-10-01T22:18:26.371Z,0
2017-10-01T22:19:27.045Z,0
2017-10-01T22:20:27.717Z,0
2017-10-01T22:21:28.386Z,0
2017-10-01T22:22:29.359Z,0
2017-10-01T22:23:30.032Z,0
2017-10-01T22:24:30.714Z,0
2017-10-01T22:25:31.396Z,0
2017-10-01T22:26:32.072Z,0
2017-10-01T22:27:33.044Z,0
2017-10-01T22:28:33.720Z,0
2017-10-01T22:29:34.395Z,0
2017-10-01T22:30:35.066Z,0
2017-10-01T22:31:35.737Z,0
2017-10-01T22:32:36.709Z,0
2017-10-01T22:33:37.387Z,0
2017-10-01T22:34:38.051Z,0
2017-10-01T22:35:38.725Z,0
2017-10-01T22:36:39.395Z,0
2017-10-01T22:37:40.369Z,0
2017-10-01T22:38:41.040Z,0
2017-10-01T22:39:41.722Z,0
2017-10-01T22:40:42.398Z,0
2017-10-01T22:41:43.068Z,0
2017-10-01T22:42:44.040Z,0
2017-10-01T22:43:44.715Z,0
2017-10-01T22:44:45.385Z,0
2017-10-01T22:45:46.055Z,0
2017-10-01T22:46:46.727Z,0
2017-10-01T22:47:47.709Z,0
2017-10-01T22:48:48.378Z,0
2017-10-01T22:49:49.056Z,0
2017-10-01T22:50:49.737Z,0
2017-10-01T22:51:50.402Z,0
2017-10-01T22:52:51.379Z,0
2017-10-01T22:53:52.046Z,0
2017-10-01T22:54:52.711Z,0
2017-10-01T22:55:53.390Z,0
2017-10-01T22:56:54.059Z,0